Time;durP1;ratioP1;P1;durP2;ratioP2;P2;SDS_P1;SDS_P2;PMS_P1;PMS_P2;Temp;Humidity;BMP_temperature;BMP_pressure;BME280_temperature;BME280_humidity;BME280_pressure;Samples;Min_cycle;Max_cycle;Signal;HPM_P1;HPM_P2
2023/05/21 00:00:00;;;;;;;16.55;3.10;;;;;;;;;;5033970;28;20523;-71
2023/05/21 00:02:28;;;;;;;11.13;3.88;;;;;;;;;;5026682;28;20021;-70
2023/05/21 00:04:54;;;;;;;10.15;3.33;;;;;;;;;;5033642;28;20375;-72
2023/05/21 00:07:22;;;;;;;9.80;3.05;;;;;;;;;;5034267;28;20030;-72
2023/05/21 00:09:48;;;;;;;5.00;2.47;;;;;;;;;;5033587;28;20132;-70
2023/05/21 00:12:14;;;;;;;8.75;2.78;;;;;;;;;;5033867;28;20530;-72
2023/05/21 00:14:40;;;;;;;13.80;3.63;;;;;;;;;;5033632;28;20113;-72
2023/05/21 00:17:06;;;;;;;9.75;2.65;;;;;;;;;;5033730;28;20459;-71
2023/05/21 00:19:32;;;;;;;6.93;2.70;;;;;;;;;;5033596;28;20022;-72
2023/05/21 00:22:01;;;;;;;10.93;2.80;;;;;;;;;;5033468;28;20029;-72
2023/05/21 00:24:27;;;;;;;11.18;2.88;;;;;;;;;;5034408;28;20447;-71
2023/05/21 00:26:53;;;;;;;9.98;2.65;;;;;;;;;;5033619;28;20103;-71
2023/05/21 00:29:20;;;;;;;9.15;2.60;;;;;;;;;;5033506;28;20104;-69
2023/05/21 00:31:46;;;;;;;21.73;2.95;;;;;;;;;;5033388;28;20452;-71
2023/05/21 00:34:12;;;;;;;11.30;2.85;;;;;;;;;;5032683;28;20030;-72
2023/05/21 00:36:39;;;;;;;10.88;3.10;;;;;;;;;;5033390;28;20048;-71
2023/05/21 00:39:05;;;;;;;11.43;2.97;;;;;;;;;;5033352;28;20021;-72
2023/05/21 00:41:31;;;;;;;9.68;3.13;;;;;;;;;;5033279;28;20100;-71
2023/05/21 00:43:59;;;;;;;7.43;2.80;;;;;;;;;;5036248;28;20103;-71
2023/05/21 00:46:27;;;;;;;18.02;3.10;;;;;;;;;;5033508;28;20020;-72
2023/05/21 00:48:53;;;;;;;9.63;3.10;;;;;;;;;;5035768;28;20021;-71
2023/05/21 00:51:20;;;;;;;7.57;2.47;;;;;;;;;;5035630;28;20040;-72
2023/05/21 00:53:50;;;;;;;15.05;2.97;;;;;;;;;;5033506;28;20120;-71
2023/05/21 00:56:16;;;;;;;10.35;2.70;;;;;;;;;;5034273;28;20029;-71
2023/05/21 00:58:42;;;;;;;14.95;3.47;;;;;;;;;;5033080;28;20479;-70
2023/05/21 01:01:12;;;;;;;11.65;3.00;;;;;;;;;;5032958;28;20045;-71
2023/05/21 01:03:38;;;;;;;7.82;2.92;;;;;;;;;;5033221;28;20037;-72
2023/05/21 01:06:04;;;;;;;10.05;2.90;;;;;;;;;;5033054;28;20030;-71
2023/05/21 01:08:31;;;;;;;12.07;3.00;;;;;;;;;;5032673;28;20067;-71
2023/05/21 01:10:57;;;;;;;15.63;3.75;;;;;;;;;;5032533;28;20216;-72
2023/05/21 01:13:24;;;;;;;10.10;2.88;;;;;;;;;;5034019;28;20044;-72
2023/05/21 01:15:51;;;;;;;12.25;3.28;;;;;;;;;;5035126;28;20025;-72
2023/05/21 01:18:18;;;;;;;16.05;2.95;;;;;;;;;;5033484;28;20651;-72
2023/05/21 01:20:46;;;;;;;9.98;2.78;;;;;;;;;;5032311;28;20022;-72
2023/05/21 01:23:13;;;;;;;7.45;2.92;;;;;;;;;;5032801;28;20017;-72
2023/05/21 01:25:41;;;;;;;8.27;2.67;;;;;;;;;;5034971;28;20040;-72
2023/05/21 01:28:07;;;;;;;11.32;2.92;;;;;;;;;;5033349;28;20021;-72
2023/05/21 01:30:33;;;;;;;12.82;3.08;;;;;;;;;;5032165;28;20045;-72
2023/05/21 01:33:25;;;;;;;10.57;3.33;;;;;;;;;;5033521;28;20108;-72
2023/05/21 01:36:06;;;;;;;13.85;3.28;;;;;;;;;;5032806;28;20042;-72
2023/05/21 01:39:08;;;;;;;13.10;3.30;;;;;;;;;;5036171;28;20116;-72
2023/05/21 01:41:36;;;;;;;10.27;2.78;;;;;;;;;;5011675;28;20068;-72
2023/05/21 01:44:03;;;;;;;12.13;3.30;;;;;;;;;;5024241;28;20037;-71
2023/05/21 01:46:31;;;;;;;8.77;2.80;;;;;;;;;;5033230;28;20021;-73
2023/05/21 01:48:57;;;;;;;12.43;2.90;;;;;;;;;;5031577;28;20021;-72
2023/05/21 01:51:23;;;;;;;9.88;2.80;;;;;;;;;;5032088;28;20445;-72
2023/05/21 01:53:49;;;;;;;12.63;2.90;;;;;;;;;;5031632;28;20021;-72
2023/05/21 01:56:15;;;;;;;10.52;2.63;;;;;;;;;;5032776;28;20034;-72
2023/05/21 01:58:42;;;;;;;10.35;3.53;;;;;;;;;;5031442;28;20029;-71
2023/05/21 02:01:10;;;;;;;11.50;2.90;;;;;;;;;;5032908;28;20057;-72
2023/05/21 02:03:37;;;;;;;15.00;3.05;;;;;;;;;;5032778;28;20498;-72
2023/05/21 02:06:03;;;;;;;8.07;3.08;;;;;;;;;;5032797;28;20044;-72
2023/05/21 02:08:30;;;;;;;13.77;3.08;;;;;;;;;;5031113;28;20052;-72
2023/05/21 02:10:56;;;;;;;12.25;3.10;;;;;;;;;;5031661;28;20025;-72
2023/05/21 02:13:23;;;;;;;13.85;3.42;;;;;;;;;;5031953;28;20032;-72
2023/05/21 02:15:53;;;;;;;14.52;3.28;;;;;;;;;;5034679;28;20033;-72
2023/05/21 02:18:20;;;;;;;13.32;3.40;;;;;;;;;;5032376;28;20021;-71
2023/05/21 02:20:46;;;;;;;10.05;3.05;;;;;;;;;;5032193;28;20026;-71
2023/05/21 02:23:12;;;;;;;10.50;3.45;;;;;;;;;;5032221;28;20063;-70
2023/05/21 02:25:38;;;;;;;13.93;3.80;;;;;;;;;;5032722;28;20081;-72
2023/05/21 02:28:05;;;;;;;10.95;3.60;;;;;;;;;;5032983;28;20360;-71
2023/05/21 02:30:31;;;;;;;15.90;4.05;;;;;;;;;;5032433;28;20071;-73
2023/05/21 02:32:58;;;;;;;17.83;3.83;;;;;;;;;;5031316;28;20075;-72
2023/05/21 02:35:24;;;;;;;12.02;3.55;;;;;;;;;;5032203;28;20096;-72
2023/05/21 02:37:50;;;;;;;11.88;3.47;;;;;;;;;;5032620;28;20078;-73
2023/05/21 02:40:16;;;;;;;13.63;3.65;;;;;;;;;;5032426;28;20045;-72
2023/05/21 02:42:42;;;;;;;15.50;3.22;;;;;;;;;;5032439;28;20045;-72
2023/05/21 02:45:10;;;;;;;11.98;3.38;;;;;;;;;;5033135;28;20036;-72
2023/05/21 02:47:37;;;;;;;12.00;4.10;;;;;;;;;;5030550;28;20514;-71
2023/05/21 02:50:03;;;;;;;13.60;3.67;;;;;;;;;;5032044;28;20117;-72
2023/05/21 02:52:29;;;;;;;14.43;4.00;;;;;;;;;;5049773;28;20029;-72
2023/05/21 02:54:55;;;;;;;18.58;4.43;;;;;;;;;;5055683;28;20360;-72
2023/05/21 02:57:21;;;;;;;21.85;4.28;;;;;;;;;;5054909;28;20032;-72
2023/05/21 02:59:47;;;;;;;20.88;4.75;;;;;;;;;;5055005;28;20025;-72
2023/05/21 03:02:13;;;;;;;13.98;4.32;;;;;;;;;;5054461;28;20104;-72
2023/05/21 03:04:45;;;;;;;13.05;3.95;;;;;;;;;;5055242;28;20029;-73
2023/05/21 03:07:13;;;;;;;14.75;4.90;;;;;;;;;;5048699;28;20045;-72
2023/05/21 03:09:40;;;;;;;12.88;3.72;;;;;;;;;;5035043;28;20475;-75
2023/05/21 03:12:06;;;;;;;11.48;4.30;;;;;;;;;;5034541;28;20464;-72
2023/05/21 03:14:32;;;;;;;13.15;4.25;;;;;;;;;;5034604;28;20026;-72
2023/05/21 03:16:58;;;;;;;20.15;4.68;;;;;;;;;;5034345;28;20394;-72
2023/05/21 03:19:25;;;;;;;13.50;4.20;;;;;;;;;;5034356;28;20036;-72
2023/05/21 03:21:51;;;;;;;14.15;4.18;;;;;;;;;;5034313;28;20064;-72
2023/05/21 03:24:17;;;;;;;14.95;4.35;;;;;;;;;;5034464;28;20403;-72
2023/05/21 03:26:43;;;;;;;12.07;4.00;;;;;;;;;;5034601;28;20021;-73
2023/05/21 03:29:09;;;;;;;16.05;4.43;;;;;;;;;;5034791;28;20029;-73
2023/05/21 03:31:35;;;;;;;15.15;5.18;;;;;;;;;;5034884;28;20029;-73
2023/05/21 03:34:01;;;;;;;18.05;4.80;;;;;;;;;;5034203;28;20081;-73
2023/05/21 03:36:27;;;;;;;13.15;4.13;;;;;;;;;;5034158;28;20026;-73
2023/05/21 03:38:53;;;;;;;20.98;4.47;;;;;;;;;;5033193;28;20085;-71
2023/05/21 03:41:20;;;;;;;16.83;4.22;;;;;;;;;;5034349;28;20029;-71
2023/05/21 03:43:46;;;;;;;18.52;4.82;;;;;;;;;;5034238;28;20392;-72
2023/05/21 03:46:11;;;;;;;21.55;5.88;;;;;;;;;;5036448;28;20028;-72
2023/05/21 03:48:37;;;;;;;14.63;4.85;;;;;;;;;;5034931;28;20053;-71
2023/05/21 03:51:03;;;;;;;20.77;5.15;;;;;;;;;;5034132;28;20026;-71
2023/05/21 03:53:29;;;;;;;18.65;5.40;;;;;;;;;;5034026;28;20467;-71
2023/05/21 03:55:55;;;;;;;16.60;4.97;;;;;;;;;;5034301;28;20117;-73
2023/05/21 03:58:22;;;;;;;16.73;5.25;;;;;;;;;;5033008;28;20025;-70
2023/05/21 04:00:48;;;;;;;20.05;5.47;;;;;;;;;;5033915;28;20049;-72
2023/05/21 04:03:14;;;;;;;39.95;6.00;;;;;;;;;;5034695;28;20159;-71
2023/05/21 04:05:40;;;;;;;17.33;5.60;;;;;;;;;;5036256;28;20072;-74
2023/05/21 04:08:06;;;;;;;19.55;6.05;;;;;;;;;;5027541;28;20095;-73
2023/05/21 04:10:32;;;;;;;17.55;6.25;;;;;;;;;;5033612;28;20108;-74
2023/05/21 04:12:58;;;;;;;24.52;5.38;;;;;;;;;;5033453;28;20250;-76
2023/05/21 04:15:24;;;;;;;20.27;6.15;;;;;;;;;;5033544;28;20056;-73
2023/05/21 04:17:51;;;;;;;21.40;6.05;;;;;;;;;;5034358;28;20051;-71
2023/05/21 04:20:17;;;;;;;17.23;5.30;;;;;;;;;;5033341;28;20018;-71
2023/05/21 04:22:43;;;;;;;16.27;5.65;;;;;;;;;;5032617;28;20055;-72
2023/05/21 04:25:09;;;;;;;23.42;6.55;;;;;;;;;;5033791;28;20029;-71
2023/05/21 04:27:36;;;;;;;18.48;5.88;;;;;;;;;;5033601;28;20049;-71
2023/05/21 04:30:05;;;;;;;17.42;5.55;;;;;;;;;;5033972;28;20088;-71
2023/05/21 04:32:33;;;;;;;16.58;6.00;;;;;;;;;;5033173;28;20038;-70
2023/05/21 04:35:03;;;;;;;17.23;5.13;;;;;;;;;;5033320;28;20026;-71
2023/05/21 04:37:30;;;;;;;21.00;5.80;;;;;;;;;;5033369;28;20049;-70
2023/05/21 04:39:57;;;;;;;17.08;5.47;;;;;;;;;;5033487;28;20046;-73
2023/05/21 04:42:23;;;;;;;23.73;5.45;;;;;;;;;;5033991;28;20029;-73
2023/05/21 04:44:49;;;;;;;25.95;6.75;;;;;;;;;;5033256;28;20079;-71
2023/05/21 04:47:17;;;;;;;15.43;5.60;;;;;;;;;;5033175;28;20034;-71
2023/05/21 04:49:43;;;;;;;17.35;5.90;;;;;;;;;;5033076;28;20021;-71
2023/05/21 04:52:09;;;;;;;20.20;5.95;;;;;;;;;;5032743;28;20029;-71
2023/05/21 04:54:37;;;;;;;17.27;5.45;;;;;;;;;;5032962;28;20029;-73
2023/05/21 04:57:04;;;;;;;20.38;6.05;;;;;;;;;;5033023;28;20120;-71
2023/05/21 04:59:30;;;;;;;20.50;5.50;;;;;;;;;;5032975;28;20462;-72
2023/05/21 05:01:56;;;;;;;15.98;5.78;;;;;;;;;;5032752;28;20476;-71
2023/05/21 05:04:22;;;;;;;18.52;6.40;;;;;;;;;;5033137;28;20344;-72
2023/05/21 05:06:49;;;;;;;21.45;6.35;;;;;;;;;;5026217;28;20084;-73
2023/05/21 05:09:15;;;;;;;16.33;5.78;;;;;;;;;;5025752;28;20098;-73
2023/05/21 05:11:41;;;;;;;17.73;5.70;;;;;;;;;;5032214;28;20029;-74
2023/05/21 05:14:07;;;;;;;16.38;6.63;;;;;;;;;;5029896;28;20489;-74
2023/05/21 05:16:34;;;;;;;21.75;6.40;;;;;;;;;;5029797;28;20022;-74
2023/05/21 05:19:00;;;;;;;27.95;6.60;;;;;;;;;;5031211;28;20021;-73
2023/05/21 05:21:26;;;;;;;21.90;7.47;;;;;;;;;;5031444;28;20033;-75
2023/05/21 05:23:52;;;;;;;24.30;5.90;;;;;;;;;;5031218;28;20030;-73
2023/05/21 05:26:18;;;;;;;20.45;6.28;;;;;;;;;;5031696;28;20164;-73
2023/05/21 05:28:45;;;;;;;18.75;6.43;;;;;;;;;;5031128;28;20549;-71
2023/05/21 05:31:11;;;;;;;20.38;6.25;;;;;;;;;;5031118;28;20029;-72
2023/05/21 05:33:37;;;;;;;23.10;6.18;;;;;;;;;;5030870;28;20395;-71
2023/05/21 05:36:03;;;;;;;15.73;6.88;;;;;;;;;;5031049;28;20025;-71
2023/05/21 05:38:30;;;;;;;21.08;6.47;;;;;;;;;;5030705;28;20083;-71
2023/05/21 05:40:56;;;;;;;21.38;7.20;;;;;;;;;;5031272;28;20503;-72
2023/05/21 05:43:22;;;;;;;17.88;6.28;;;;;;;;;;5030778;28;20079;-71
2023/05/21 05:45:48;;;;;;;15.68;6.65;;;;;;;;;;5031095;28;20450;-71
2023/05/21 05:48:13;;;;;;;20.52;6.55;;;;;;;;;;5031889;28;20033;-71
2023/05/21 05:50:39;;;;;;;14.77;6.65;;;;;;;;;;5031800;28;20414;-71
2023/05/21 05:53:06;;;;;;;23.88;6.38;;;;;;;;;;5031912;28;20029;-73
2023/05/21 05:55:32;;;;;;;20.75;6.22;;;;;;;;;;5031941;28;20087;-71
2023/05/21 05:57:58;;;;;;;23.92;6.55;;;;;;;;;;5031869;28;20041;-71
2023/05/21 06:00:24;;;;;;;20.42;6.13;;;;;;;;;;5031615;28;20021;-71
2023/05/21 06:02:50;;;;;;;21.50;6.20;;;;;;;;;;5026496;28;20557;-71
2023/05/21 06:05:16;;;;;;;15.75;6.38;;;;;;;;;;5031641;28;20032;-71
2023/05/21 06:07:42;;;;;;;19.38;6.82;;;;;;;;;;5031174;28;20501;-71
2023/05/21 06:10:08;;;;;;;16.02;6.15;;;;;;;;;;5031542;28;20108;-71
2023/05/21 06:12:34;;;;;;;19.77;7.30;;;;;;;;;;5027709;28;20045;-71
2023/05/21 06:15:00;;;;;;;18.45;6.63;;;;;;;;;;5031502;28;20026;-70
2023/05/21 06:17:26;;;;;;;20.15;6.90;;;;;;;;;;5031558;28;20487;-72
2023/05/21 06:19:52;;;;;;;23.15;7.05;;;;;;;;;;5031462;28;20107;-70
2023/05/21 06:22:18;;;;;;;21.35;6.78;;;;;;;;;;5031601;28;20119;-71
2023/05/21 06:24:44;;;;;;;17.63;6.38;;;;;;;;;;5031558;28;20480;-70
2023/05/21 06:27:10;;;;;;;21.38;6.80;;;;;;;;;;5031527;28;20099;-70
2023/05/21 06:29:36;;;;;;;22.83;7.53;;;;;;;;;;5031194;28;20033;-71
2023/05/21 06:32:02;;;;;;;14.48;7.07;;;;;;;;;;5031154;28;20026;-70
2023/05/21 06:34:28;;;;;;;18.48;6.85;;;;;;;;;;5031527;28;20026;-70
2023/05/21 06:36:54;;;;;;;19.38;7.00;;;;;;;;;;5031406;28;20431;-70
2023/05/21 06:39:20;;;;;;;16.55;6.82;;;;;;;;;;5031889;28;20042;-71
2023/05/21 06:41:46;;;;;;;17.52;6.88;;;;;;;;;;5031358;28;20085;-71
2023/05/21 06:44:13;;;;;;;21.15;8.05;;;;;;;;;;5031681;28;20018;-70
2023/05/21 06:46:39;;;;;;;17.85;6.82;;;;;;;;;;5031577;28;20024;-70
2023/05/21 06:49:05;;;;;;;16.90;7.57;;;;;;;;;;5031557;28;20026;-73
2023/05/21 06:51:32;;;;;;;23.88;8.20;;;;;;;;;;5031406;28;20017;-70
2023/05/21 06:53:58;;;;;;;16.33;7.93;;;;;;;;;;5030921;28;20239;-71
2023/05/21 06:56:25;;;;;;;22.17;9.45;;;;;;;;;;5030094;28;20580;-71
2023/05/21 06:58:51;;;;;;;22.80;8.20;;;;;;;;;;5030280;28;20075;-71
2023/05/21 07:01:17;;;;;;;18.75;7.40;;;;;;;;;;5025882;28;20464;-71
2023/05/21 07:03:43;;;;;;;21.15;9.30;;;;;;;;;;5030020;28;20033;-70
2023/05/21 07:06:09;;;;;;;23.17;8.73;;;;;;;;;;5030444;28;20100;-71
2023/05/21 07:08:35;;;;;;;15.90;7.80;;;;;;;;;;5030291;28;20038;-71
2023/05/21 07:11:01;;;;;;;19.75;8.20;;;;;;;;;;5030324;28;20053;-71
2023/05/21 07:13:27;;;;;;;15.60;7.72;;;;;;;;;;5030257;28;20385;-70
2023/05/21 07:15:53;;;;;;;18.00;7.88;;;;;;;;;;5030464;28;20030;-71
2023/05/21 07:18:19;;;;;;;17.27;8.57;;;;;;;;;;5030577;28;20032;-71
2023/05/21 07:20:45;;;;;;;26.02;9.38;;;;;;;;;;5030128;28;20379;-71
2023/05/21 07:23:11;;;;;;;19.15;8.65;;;;;;;;;;5030351;28;20026;-71
2023/05/21 07:25:37;;;;;;;21.60;8.85;;;;;;;;;;5030306;28;20033;-72
2023/05/21 07:28:03;;;;;;;21.95;8.93;;;;;;;;;;5030548;28;20033;-71
2023/05/21 07:30:29;;;;;;;18.42;8.60;;;;;;;;;;5029137;28;20411;-71
2023/05/21 07:32:55;;;;;;;20.02;8.60;;;;;;;;;;5030003;28;20025;-70
2023/05/21 07:35:21;;;;;;;18.70;9.20;;;;;;;;;;5029704;28;20391;-72
2023/05/21 07:37:47;;;;;;;16.27;8.40;;;;;;;;;;5029588;28;20497;-71
2023/05/21 07:40:13;;;;;;;25.98;9.77;;;;;;;;;;5030377;28;20040;-72
2023/05/21 07:42:40;;;;;;;21.17;9.95;;;;;;;;;;5033981;28;20468;-74
2023/05/21 07:45:06;;;;;;;21.95;9.07;;;;;;;;;;5033719;28;20119;-71
2023/05/21 07:47:32;;;;;;;25.08;9.98;;;;;;;;;;5033129;28;20028;-71
2023/05/21 07:49:58;;;;;;;20.02;9.13;;;;;;;;;;5033377;28;20391;-71
2023/05/21 07:52:24;;;;;;;18.38;9.48;;;;;;;;;;5032955;28;20111;-71
2023/05/21 07:54:50;;;;;;;20.27;8.98;;;;;;;;;;5033044;28;20022;-72
2023/05/21 07:57:16;;;;;;;20.42;10.07;;;;;;;;;;5034547;28;20053;-70
2023/05/21 07:59:42;;;;;;;26.50;9.50;;;;;;;;;;5034170;28;20045;-71
2023/05/21 08:02:08;;;;;;;20.20;9.65;;;;;;;;;;5033897;28;20378;-70
2023/05/21 08:04:35;;;;;;;18.10;9.65;;;;;;;;;;5034014;28;20029;-71
2023/05/21 08:07:01;;;;;;;22.00;10.38;;;;;;;;;;5033938;28;20029;-71
2023/05/21 08:09:28;;;;;;;20.90;9.15;;;;;;;;;;5033984;28;20063;-70
2023/05/21 08:11:54;;;;;;;17.85;9.52;;;;;;;;;;5033809;28;20036;-69
2023/05/21 08:14:20;;;;;;;19.55;9.98;;;;;;;;;;5033219;28;20108;-72
2023/05/21 08:16:46;;;;;;;21.55;10.85;;;;;;;;;;5033183;28;20021;-71
2023/05/21 08:19:12;;;;;;;21.17;10.02;;;;;;;;;;5033072;28;20018;-72
2023/05/21 08:21:38;;;;;;;25.17;10.52;;;;;;;;;;5033445;28;20014;-73
2023/05/21 08:24:04;;;;;;;24.90;11.05;;;;;;;;;;5032738;28;20112;-73
2023/05/21 08:26:30;;;;;;;22.17;10.18;;;;;;;;;;5033129;28;20125;-77
2023/05/21 08:28:56;;;;;;;25.25;10.77;;;;;;;;;;5033251;28;20105;-72
2023/05/21 08:31:23;;;;;;;28.42;11.57;;;;;;;;;;5032920;28;20061;-74
2023/05/21 08:33:52;;;;;;;20.77;10.40;;;;;;;;;;5033401;28;20037;-73
2023/05/21 08:36:18;;;;;;;20.45;10.88;;;;;;;;;;5032777;28;20025;-70
2023/05/21 08:38:44;;;;;;;20.20;11.07;;;;;;;;;;5032558;28;20379;-70
2023/05/21 08:41:11;;;;;;;21.48;10.68;;;;;;;;;;5032631;28;20059;-73
2023/05/21 08:43:38;;;;;;;28.42;11.93;;;;;;;;;;5032096;28;20029;-73
2023/05/21 08:46:04;;;;;;;18.98;11.20;;;;;;;;;;5032386;28;20031;-76
2023/05/21 08:48:31;;;;;;;21.15;11.68;;;;;;;;;;5032450;28;20036;-76
2023/05/21 08:50:58;;;;;;;22.67;11.43;;;;;;;;;;5032180;28;20029;-76
2023/05/21 08:53:26;;;;;;;23.55;10.32;;;;;;;;;;5032438;28;20108;-75
2023/05/21 08:55:52;;;;;;;23.88;12.43;;;;;;;;;;5032260;28;20384;-73
2023/05/21 08:58:19;;;;;;;20.23;11.20;;;;;;;;;;5031794;28;20037;-71
2023/05/21 09:00:45;;;;;;;21.52;12.95;;;;;;;;;;5032557;28;20026;-72
2023/05/21 09:03:12;;;;;;;22.00;13.43;;;;;;;;;;5031622;28;20025;-71
2023/05/21 09:05:39;;;;;;;19.35;10.88;;;;;;;;;;5032069;28;20061;-72
2023/05/21 09:08:07;;;;;;;24.30;11.82;;;;;;;;;;5032632;28;20033;-72
2023/05/21 09:10:37;;;;;;;22.10;11.43;;;;;;;;;;5032051;28;20022;-72
2023/05/21 09:13:04;;;;;;;23.73;10.98;;;;;;;;;;5031743;28;20380;-72
2023/05/21 09:15:30;;;;;;;23.27;10.57;;;;;;;;;;5032095;28;20487;-71
2023/05/21 09:17:56;;;;;;;22.30;11.35;;;;;;;;;;5031422;28;20036;-71
2023/05/21 09:20:26;;;;;;;22.98;11.30;;;;;;;;;;5031460;28;20036;-70
2023/05/21 09:22:54;;;;;;;22.73;10.95;;;;;;;;;;5031841;28;20022;-71
2023/05/21 09:25:21;;;;;;;29.88;12.73;;;;;;;;;;5030059;28;20021;-72
2023/05/21 09:27:47;;;;;;;21.00;11.50;;;;;;;;;;5031278;28;20036;-71
2023/05/21 09:30:15;;;;;;;19.58;11.77;;;;;;;;;;5031271;28;20029;-72
2023/05/21 09:32:41;;;;;;;26.50;11.35;;;;;;;;;;5030931;28;20529;-70
2023/05/21 09:35:08;;;;;;;28.67;13.57;;;;;;;;;;5030955;28;20104;-71
2023/05/21 09:37:42;;;;;;;26.70;13.82;;;;;;;;;;5032109;28;20022;-74
2023/05/21 09:40:18;;;;;;;21.90;11.88;;;;;;;;;;5032397;28;20017;-76
2023/05/21 09:42:48;;;;;;;25.25;12.13;;;;;;;;;;5035283;28;20087;-71
2023/05/21 09:45:18;;;;;;;23.52;12.02;;;;;;;;;;5031521;28;20116;-71
2023/05/21 09:47:45;;;;;;;22.20;12.13;;;;;;;;;;5031461;28;20021;-71
2023/05/21 09:50:11;;;;;;;28.88;11.95;;;;;;;;;;5031186;28;20052;-70
2023/05/21 09:52:38;;;;;;;23.83;12.57;;;;;;;;;;5030878;28;20059;-71
2023/05/21 09:55:10;;;;;;;31.00;12.90;;;;;;;;;;5031107;28;20028;-71
2023/05/21 09:57:43;;;;;;;20.15;12.00;;;;;;;;;;5029803;28;20029;-72
2023/05/21 10:00:18;;;;;;;21.88;12.68;;;;;;;;;;5031145;28;20022;-71
2023/05/21 10:02:46;;;;;;;26.20;13.23;;;;;;;;;;5030566;28;20021;-72
2023/05/21 10:05:13;;;;;;;23.48;13.60;;;;;;;;;;5031044;28;20030;-72
2023/05/21 10:07:41;;;;;;;30.17;13.68;;;;;;;;;;5031112;28;20035;-73
2023/05/21 10:10:08;;;;;;;19.50;13.65;;;;;;;;;;5030812;28;20550;-75
2023/05/21 10:12:34;;;;;;;23.23;13.98;;;;;;;;;;5030551;28;20053;-72
2023/05/21 10:15:02;;;;;;;23.45;11.98;;;;;;;;;;5030772;28;20072;-73
2023/05/21 10:17:29;;;;;;;24.42;14.10;;;;;;;;;;5031842;28;20427;-75
2023/05/21 10:19:55;;;;;;;23.92;13.63;;;;;;;;;;5037370;28;20495;-73
2023/05/21 10:22:24;;;;;;;26.23;13.30;;;;;;;;;;5031170;28;20384;-72
2023/05/21 10:24:52;;;;;;;23.95;12.70;;;;;;;;;;5030933;28;20036;-71
2023/05/21 10:27:19;;;;;;;24.10;13.60;;;;;;;;;;5025976;28;20025;-72
2023/05/21 10:29:45;;;;;;;23.60;14.32;;;;;;;;;;5027046;28;20064;-72
2023/05/21 10:32:12;;;;;;;27.00;13.93;;;;;;;;;;5024421;28;20447;-71
2023/05/21 10:34:38;;;;;;;29.73;13.38;;;;;;;;;;5021512;28;20028;-72
2023/05/21 10:37:08;;;;;;;24.58;12.40;;;;;;;;;;5027524;28;20099;-73
2023/05/21 10:39:34;;;;;;;22.58;13.55;;;;;;;;;;5025941;28;20511;-72
2023/05/21 10:42:03;;;;;;;30.65;13.95;;;;;;;;;;5020628;28;20369;-72
2023/05/21 10:44:49;;;;;;;23.00;12.25;;;;;;;;;;5026864;28;20025;-73
2023/05/21 10:47:15;;;;;;;21.98;11.98;;;;;;;;;;5022897;28;20025;-72
2023/05/21 10:49:50;;;;;;;27.35;13.18;;;;;;;;;;5027907;28;20104;-73
2023/05/21 10:52:19;;;;;;;24.52;13.35;;;;;;;;;;5028964;28;20553;-71
2023/05/21 10:54:57;;;;;;;25.52;12.15;;;;;;;;;;5030339;28;20148;-71
2023/05/21 10:57:41;;;;;;;23.02;12.32;;;;;;;;;;5030384;28;20049;-71
2023/05/21 11:00:08;;;;;;;26.50;12.18;;;;;;;;;;5027976;28;20036;-72
2023/05/21 11:02:34;;;;;;;29.17;11.82;;;;;;;;;;5030047;28;20033;-72
2023/05/21 11:05:01;;;;;;;23.85;12.15;;;;;;;;;;5027102;28;20033;-72
2023/05/21 11:07:56;;;;;;;24.77;12.32;;;;;;;;;;5026104;28;20021;-71
2023/05/21 11:10:35;;;;;;;20.13;11.50;;;;;;;;;;5020299;28;20468;-71
2023/05/21 11:13:07;;;;;;;28.55;12.57;;;;;;;;;;5029096;28;20029;-71
2023/05/21 11:15:52;;;;;;;26.83;13.63;;;;;;;;;;5028447;28;20040;-72
2023/05/21 11:18:18;;;;;;;;;;;;;;;;;;5027736;28;20029;-70
2023/05/21 11:20:50;;;;;;;20.17;12.95;;;;;;;;;;5030172;28;20282;-70
2023/05/21 11:23:16;;;;;;;24.83;12.48;;;;;;;;;;5028379;28;20506;-74
2023/05/21 11:25:42;;;;;;;21.40;11.25;;;;;;;;;;5029835;28;20026;-72
2023/05/21 11:28:08;;;;;;;23.17;12.00;;;;;;;;;;5032001;28;20021;-72
2023/05/21 11:30:34;;;;;;;21.00;11.60;;;;;;;;;;5022649;28;20037;-72
2023/05/21 11:33:10;;;;;;;28.38;11.65;;;;;;;;;;5033318;28;20487;-71
2023/05/21 11:35:38;;;;;;;23.95;11.07;;;;;;;;;;5034071;28;20507;-72
2023/05/21 11:38:08;;;;;;;31.58;12.00;;;;;;;;;;5034639;28;20031;-71
2023/05/21 11:40:34;;;;;;;21.08;11.25;;;;;;;;;;5034391;28;20028;-72
2023/05/21 11:43:00;;;;;;;21.33;11.38;;;;;;;;;;5034374;28;20029;-71
2023/05/21 11:45:30;;;;;;;25.85;11.13;;;;;;;;;;5033513;28;20540;-72
2023/05/21 11:47:57;;;;;;;21.45;10.63;;;;;;;;;;5032980;28;20025;-72
2023/05/21 11:50:23;;;;;;;18.30;10.55;;;;;;;;;;5033034;28;20032;-73
2023/05/21 11:52:49;;;;;;;25.42;11.60;;;;;;;;;;5032899;28;20057;-72
2023/05/21 11:55:20;;;;;;;22.52;11.02;;;;;;;;;;5031373;28;20079;-72
2023/05/21 11:57:46;;;;;;;23.30;11.43;;;;;;;;;;5033162;28;20021;-72
2023/05/21 12:00:16;;;;;;;16.85;10.40;;;;;;;;;;5033122;28;20272;-70
2023/05/21 12:02:46;;;;;;;20.48;10.75;;;;;;;;;;5033056;28;20074;-70
2023/05/21 12:05:12;;;;;;;20.45;10.63;;;;;;;;;;5034178;28;20029;-71
2023/05/21 12:07:38;;;;;;;20.67;11.57;;;;;;;;;;5033912;28;20688;-73
2023/05/21 12:10:05;;;;;;;21.90;10.23;;;;;;;;;;5033664;28;20070;-72
2023/05/21 12:12:31;;;;;;;19.98;10.20;;;;;;;;;;5033048;28;20116;-72
2023/05/21 12:14:58;;;;;;;24.48;10.20;;;;;;;;;;5032473;28;20026;-72
2023/05/21 12:17:27;;;;;;;24.17;10.43;;;;;;;;;;5032934;28;20053;-72
2023/05/21 12:19:56;;;;;;;18.60;10.07;;;;;;;;;;5033534;28;20047;-71
2023/05/21 12:22:23;;;;;;;19.02;11.00;;;;;;;;;;5033373;28;20090;-71
2023/05/21 12:24:49;;;;;;;21.00;10.48;;;;;;;;;;5033726;28;20105;-72
2023/05/21 12:27:17;;;;;;;26.92;10.65;;;;;;;;;;5033121;28;20044;-73
2023/05/21 12:29:43;;;;;;;25.48;11.93;;;;;;;;;;5014863;28;20084;-73
2023/05/21 12:32:13;;;;;;;20.77;10.95;;;;;;;;;;5013451;28;20556;-73
2023/05/21 12:34:43;;;;;;;24.35;11.38;;;;;;;;;;5013758;28;20026;-72
2023/05/21 12:37:10;;;;;;;19.95;9.77;;;;;;;;;;5013661;28;20460;-73
2023/05/21 12:39:40;;;;;;;19.95;11.00;;;;;;;;;;5013571;28;20029;-73
2023/05/21 12:42:06;;;;;;;19.02;10.52;;;;;;;;;;5013155;28;20018;-73
2023/05/21 12:44:32;;;;;;;18.38;10.48;;;;;;;;;;5028651;28;20030;-73
2023/05/21 12:46:58;;;;;;;20.98;10.50;;;;;;;;;;5033552;28;20022;-73
2023/05/21 12:49:31;;;;;;;20.83;10.70;;;;;;;;;;5033774;28;20032;-73
2023/05/21 12:51:57;;;;;;;18.58;10.50;;;;;;;;;;5033172;28;20052;-72
2023/05/21 12:54:43;;;;;;;21.90;11.13;;;;;;;;;;5032868;28;20028;-73
2023/05/21 12:57:13;;;;;;;28.38;12.68;;;;;;;;;;5033223;28;20033;-73
2023/05/21 12:59:49;;;;;;;26.95;10.98;;;;;;;;;;5033257;28;20056;-72
2023/05/21 13:02:26;;;;;;;17.33;10.02;;;;;;;;;;5033104;28;20045;-73
2023/05/21 13:04:58;;;;;;;21.05;10.75;;;;;;;;;;5032833;28;20442;-71
2023/05/21 13:07:25;;;;;;;18.58;10.15;;;;;;;;;;5033100;28;20390;-72
2023/05/21 13:09:52;;;;;;;20.00;9.93;;;;;;;;;;5032713;28;20112;-73
2023/05/21 13:12:20;;;;;;;18.42;10.02;;;;;;;;;;5032584;28;20037;-72
2023/05/21 13:14:45;;;;;;;17.98;9.90;;;;;;;;;;5032643;28;20026;-72
2023/05/21 13:17:11;;;;;;;21.70;9.80;;;;;;;;;;5033181;28;20379;-72
2023/05/21 13:19:37;;;;;;;19.35;9.88;;;;;;;;;;5032971;28;20045;-71
2023/05/21 13:22:03;;;;;;;15.35;10.00;;;;;;;;;;5032629;28;20493;-71
2023/05/21 13:24:29;;;;;;;18.52;9.57;;;;;;;;;;5030843;28;20029;-71
2023/05/21 13:26:56;;;;;;;15.27;10.30;;;;;;;;;;5032584;28;20029;-71
2023/05/21 13:29:22;;;;;;;20.60;10.20;;;;;;;;;;5032606;28;20034;-71
2023/05/21 13:31:47;;;;;;;19.30;10.25;;;;;;;;;;5032303;28;20091;-72
2023/05/21 13:34:13;;;;;;;16.13;9.85;;;;;;;;;;5032290;28;20021;-72
2023/05/21 13:36:40;;;;;;;18.95;10.07;;;;;;;;;;5032640;28;20079;-72
2023/05/21 13:39:06;;;;;;;22.65;10.20;;;;;;;;;;5031361;28;20057;-72
2023/05/21 13:41:32;;;;;;;22.55;10.40;;;;;;;;;;5031971;28;20072;-72
2023/05/21 13:43:58;;;;;;;14.90;9.60;;;;;;;;;;5031909;28;20065;-71
2023/05/21 13:46:24;;;;;;;23.80;9.57;;;;;;;;;;5032116;28;20029;-74
2023/05/21 13:48:50;;;;;;;20.48;9.07;;;;;;;;;;5032700;28;20036;-71
2023/05/21 13:51:16;;;;;;;20.55;9.40;;;;;;;;;;5031594;28;20355;-72
2023/05/21 13:53:42;;;;;;;16.40;9.75;;;;;;;;;;5030898;28;20036;-70
2023/05/21 13:56:08;;;;;;;18.40;9.73;;;;;;;;;;5032130;28;20033;-72
2023/05/21 13:58:34;;;;;;;17.30;10.13;;;;;;;;;;5031719;28;20029;-73
2023/05/21 14:01:01;;;;;;;16.73;9.38;;;;;;;;;;5032088;28;20403;-73
2023/05/21 14:03:28;;;;;;;19.00;9.05;;;;;;;;;;5030553;28;20110;-73
2023/05/21 14:05:54;;;;;;;14.82;9.98;;;;;;;;;;5030978;28;20029;-73
2023/05/21 14:08:22;;;;;;;20.55;9.57;;;;;;;;;;5030886;28;20037;-72
2023/05/21 14:10:48;;;;;;;18.73;8.30;;;;;;;;;;5031099;28;20041;-75
2023/05/21 14:13:14;;;;;;;15.70;9.30;;;;;;;;;;5030754;28;20018;-78
2023/05/21 14:15:41;;;;;;;17.20;9.10;;;;;;;;;;5029125;28;20475;-72
2023/05/21 14:18:10;;;;;;;17.92;8.57;;;;;;;;;;5030565;28;20017;-76
2023/05/21 14:20:36;;;;;;;14.13;8.23;;;;;;;;;;5028752;28;20252;-74
2023/05/21 14:23:02;;;;;;;15.75;8.55;;;;;;;;;;5030517;28;20338;-76
2023/05/21 14:25:28;;;;;;;18.92;8.20;;;;;;;;;;5031075;28;20029;-74